sensor_id;sensor_type;location;lat;lon;timestamp;pressure;altitude;pressure_sealevel;temperature;humidity
17764;BME280;22245;52.832;13.816;2023-05-06T00:01:21;101724.03;;;13.21;50.21
17764;BME280;22245;52.832;13.816;2023-05-06T00:04:43;101728.91;;;13.16;49.97
17764;BME280;22245;52.832;13.816;2023-05-06T00:08:06;101721.84;;;13.15;50.76
17764;BME280;22245;52.832;13.816;2023-05-06T00:11:27;101708.59;;;13.13;50.19
17764;BME280;22245;52.832;13.816;2023-05-06T00:14:49;101700.19;;;13.07;50.00
17764;BME280;22245;52.832;13.816;2023-05-06T00:18:10;101705.78;;;13.03;50.10
17764;BME280;22245;52.832;13.816;2023-05-06T00:21:34;101698.03;;;13.00;50.33
17764;BME280;22245;52.832;13.816;2023-05-06T00:24:57;101698.28;;;12.97;50.05
17764;BME280;22245;52.832;13.816;2023-05-06T00:28:18;101697.69;;;12.94;50.57
17764;BME280;22245;52.832;13.816;2023-05-06T00:31:40;101697.06;;;12.90;50.78
17764;BME280;22245;52.832;13.816;2023-05-06T00:35:01;101696.69;;;12.83;52.24
17764;BME280;22245;52.832;13.816;2023-05-06T00:38:23;101683.72;;;12.79;52.84
17764;BME280;22245;52.832;13.816;2023-05-06T00:41:46;101679.13;;;12.69;53.68
17764;BME280;22245;52.832;13.816;2023-05-06T00:45:08;101693.06;;;12.62;54.48
17764;BME280;22245;52.832;13.816;2023-05-06T00:48:30;101682.00;;;12.55;54.92
17764;BME280;22245;52.832;13.816;2023-05-06T00:51:54;101681.16;;;12.43;55.23
17764;BME280;22245;52.832;13.816;2023-05-06T00:55:16;101686.63;;;12.41;55.29
17764;BME280;22245;52.832;13.816;2023-05-06T00:58:39;101676.78;;;12.42;55.61
17764;BME280;22245;52.832;13.816;2023-05-06T01:02:01;101673.13;;;12.32;54.85
17764;BME280;22245;52.832;13.816;2023-05-06T01:05:29;101678.22;;;12.23;55.05
17764;BME280;22245;52.832;13.816;2023-05-06T01:08:57;101677.72;;;12.18;55.80
17764;BME280;22245;52.832;13.816;2023-05-06T01:12:26;101669.22;;;12.13;57.33
17764;BME280;22245;52.832;13.816;2023-05-06T01:15:53;101658.50;;;12.01;57.01
17764;BME280;22245;52.832;13.816;2023-05-06T01:19:28;101658.78;;;11.85;57.71
17764;BME280;22245;52.832;13.816;2023-05-06T01:22:54;101656.97;;;11.75;56.95
17764;BME280;22245;52.832;13.816;2023-05-06T01:26:17;101653.16;;;11.66;58.78
17764;BME280;22245;52.832;13.816;2023-05-06T01:29:41;101648.97;;;11.50;59.85
17764;BME280;22245;52.832;13.816;2023-05-06T01:33:07;101650.84;;;11.37;61.13
17764;BME280;22245;52.832;13.816;2023-05-06T01:36:35;101646.81;;;11.31;61.94
17764;BME280;22245;52.832;13.816;2023-05-06T01:39:59;101643.13;;;11.21;61.93
17764;BME280;22245;52.832;13.816;2023-05-06T01:43:29;101645.00;;;11.07;62.45
17764;BME280;22245;52.832;13.816;2023-05-06T01:46:53;101639.16;;;11.02;62.96
17764;BME280;22245;52.832;13.816;2023-05-06T01:50:15;101648.22;;;10.99;62.54
17764;BME280;22245;52.832;13.816;2023-05-06T01:53:37;101653.03;;;10.94;63.62
17764;BME280;22245;52.832;13.816;2023-05-06T01:56:58;101649.56;;;10.81;63.15
17764;BME280;22245;52.832;13.816;2023-05-06T02:00:23;101646.47;;;10.74;63.72
17764;BME280;22245;52.832;13.816;2023-05-06T02:03:45;101649.38;;;10.71;63.95
17764;BME280;22245;52.832;13.816;2023-05-06T02:07:07;101653.09;;;10.68;64.58
17764;BME280;22245;52.832;13.816;2023-05-06T02:10:29;101650.56;;;10.67;64.85
17764;BME280;22245;52.832;13.816;2023-05-06T02:13:55;101642.03;;;10.62;64.60
17764;BME280;22245;52.832;13.816;2023-05-06T02:17:19;101641.94;;;10.50;65.45
17764;BME280;22245;52.832;13.816;2023-05-06T02:20:40;101651.84;;;10.48;65.43
17764;BME280;22245;52.832;13.816;2023-05-06T02:24:07;101641.81;;;10.39;65.94
17764;BME280;22245;52.832;13.816;2023-05-06T02:27:28;101639.38;;;10.36;66.29
17764;BME280;22245;52.832;13.816;2023-05-06T02:30:54;101639.69;;;10.31;66.81
17764;BME280;22245;52.832;13.816;2023-05-06T02:34:17;101636.28;;;10.29;67.88
17764;BME280;22245;52.832;13.816;2023-05-06T02:37:38;101626.69;;;10.26;67.77
17764;BME280;22245;52.832;13.816;2023-05-06T02:40:59;101634.56;;;10.28;67.92
17764;BME280;22245;52.832;13.816;2023-05-06T02:44:20;101634.69;;;10.26;68.50
17764;BME280;22245;52.832;13.816;2023-05-06T02:47:42;101626.28;;;10.20;68.46
17764;BME280;22245;52.832;13.816;2023-05-06T02:51:05;101624.78;;;10.16;68.39
17764;BME280;22245;52.832;13.816;2023-05-06T02:54:27;101619.97;;;10.08;68.12
17764;BME280;22245;52.832;13.816;2023-05-06T02:57:48;101626.38;;;10.05;68.18
17764;BME280;22245;52.832;13.816;2023-05-06T03:01:10;101621.38;;;10.01;68.39
17764;BME280;22245;52.832;13.816;2023-05-06T03:04:32;101618.91;;;9.97;69.15
17764;BME280;22245;52.832;13.816;2023-05-06T03:07:55;101625.19;;;9.96;69.73
17764;BME280;22245;52.832;13.816;2023-05-06T03:11:17;101625.19;;;9.96;69.67
17764;BME280;22245;52.832;13.816;2023-05-06T03:14:38;101621.13;;;9.91;69.59
17764;BME280;22245;52.832;13.816;2023-05-06T03:18:00;101615.19;;;9.87;69.75
17764;BME280;22245;52.832;13.816;2023-05-06T03:21:22;101621.25;;;9.89;69.97
17764;BME280;22245;52.832;13.816;2023-05-06T03:24:46;101613.38;;;9.88;70.55
17764;BME280;22245;52.832;13.816;2023-05-06T03:28:09;101617.19;;;9.83;70.73
17764;BME280;22245;52.832;13.816;2023-05-06T03:31:33;101600.38;;;9.83;70.99
17764;BME280;22245;52.832;13.816;2023-05-06T03:34:55;101605.69;;;9.83;71.51
17764;BME280;22245;52.832;13.816;2023-05-06T03:38:17;101602.28;;;9.81;71.74
17764;BME280;22245;52.832;13.816;2023-05-06T03:41:47;101612.50;;;9.74;72.03
17764;BME280;22245;52.832;13.816;2023-05-06T03:45:10;101616.56;;;9.67;71.96
17764;BME280;22245;52.832;13.816;2023-05-06T03:48:33;101620.72;;;9.71;72.27
17764;BME280;22245;52.832;13.816;2023-05-06T03:51:57;101616.22;;;9.72;72.31
17764;BME280;22245;52.832;13.816;2023-05-06T03:55:20;101604.19;;;9.66;72.62
17764;BME280;22245;52.832;13.816;2023-05-06T03:58:43;101604.38;;;9.63;72.68
17764;BME280;22245;52.832;13.816;2023-05-06T04:02:05;101604.19;;;9.66;72.44
17764;BME280;22245;52.832;13.816;2023-05-06T04:05:29;101600.88;;;9.62;72.99
17764;BME280;22245;52.832;13.816;2023-05-06T04:08:50;101597.28;;;9.63;73.24
17764;BME280;22245;52.832;13.816;2023-05-06T04:12:12;101599.81;;;9.65;73.98
17764;BME280;22245;52.832;13.816;2023-05-06T04:15:35;101599.19;;;9.61;73.98
17764;BME280;22245;52.832;13.816;2023-05-06T04:19:00;101600.22;;;9.59;74.01
17764;BME280;22245;52.832;13.816;2023-05-06T04:22:27;101585.34;;;9.56;74.19
17764;BME280;22245;52.832;13.816;2023-05-06T04:25:48;101583.66;;;9.55;74.29
17764;BME280;22245;52.832;13.816;2023-05-06T04:29:13;101596.94;;;9.55;74.61
17764;BME280;22245;52.832;13.816;2023-05-06T04:32:48;101586.31;;;9.55;74.45
17764;BME280;22245;52.832;13.816;2023-05-06T04:36:10;101602.25;;;9.55;74.61
17764;BME280;22245;52.832;13.816;2023-05-06T04:39:37;101598.94;;;9.51;74.62
17764;BME280;22245;52.832;13.816;2023-05-06T04:43:00;101596.59;;;9.47;75.18
17764;BME280;22245;52.832;13.816;2023-05-06T04:46:23;101589.91;;;9.41;75.24
17764;BME280;22245;52.832;13.816;2023-05-06T04:49:47;101592.63;;;9.39;75.26
17764;BME280;22245;52.832;13.816;2023-05-06T04:53:09;101598.06;;;9.38;75.33
17764;BME280;22245;52.832;13.816;2023-05-06T04:56:31;101600.00;;;9.36;75.67
17764;BME280;22245;52.832;13.816;2023-05-06T04:59:53;101600.00;;;9.36;75.77
17764;BME280;22245;52.832;13.816;2023-05-06T05:03:15;101609.75;;;9.35;75.51
17764;BME280;22245;52.832;13.816;2023-05-06T05:06:38;101604.44;;;9.35;75.90
17764;BME280;22245;52.832;13.816;2023-05-06T05:10:01;101609.88;;;9.34;75.95
17764;BME280;22245;52.832;13.816;2023-05-06T05:13:23;101614.31;;;9.33;76.31
17764;BME280;22245;52.832;13.816;2023-05-06T05:16:46;101615.28;;;9.32;76.80
17764;BME280;22245;52.832;13.816;2023-05-06T05:20:08;101620.50;;;9.34;76.43
17764;BME280;22245;52.832;13.816;2023-05-06T05:23:31;101615.06;;;9.35;76.50
17764;BME280;22245;52.832;13.816;2023-05-06T05:26:53;101626.44;;;9.37;76.79
17764;BME280;22245;52.832;13.816;2023-05-06T05:30:15;101637.09;;;9.37;76.48
17764;BME280;22245;52.832;13.816;2023-05-06T05:33:37;101641.38;;;9.40;75.94
17764;BME280;22245;52.832;13.816;2023-05-06T05:37:01;101639.53;;;9.40;75.89
17764;BME280;22245;52.832;13.816;2023-05-06T05:40:26;101643.06;;;9.41;75.16
17764;BME280;22245;52.832;13.816;2023-05-06T05:43:48;101636.13;;;9.38;75.60
17764;BME280;22245;52.832;13.816;2023-05-06T05:47:11;101652.00;;;9.40;76.12
17764;BME280;22245;52.832;13.816;2023-05-06T05:50:33;101649.44;;;9.38;76.32
17764;BME280;22245;52.832;13.816;2023-05-06T05:53:54;101656.78;;;9.35;76.74
17764;BME280;22245;52.832;13.816;2023-05-06T05:57:18;101661.97;;;9.36;76.14
17764;BME280;22245;52.832;13.816;2023-05-06T06:00:40;101665.59;;;9.35;76.60
17764;BME280;22245;52.832;13.816;2023-05-06T06:04:05;101666.34;;;9.37;76.54
17764;BME280;22245;52.832;13.816;2023-05-06T06:07:27;101661.13;;;9.36;76.99
17764;BME280;22245;52.832;13.816;2023-05-06T06:10:48;101667.09;;;9.39;77.57
17764;BME280;22245;52.832;13.816;2023-05-06T06:14:15;101681.13;;;9.41;77.93
17764;BME280;22245;52.832;13.816;2023-05-06T06:17:38;101673.91;;;9.44;77.53
17764;BME280;22245;52.832;13.816;2023-05-06T06:21:00;101674.66;;;9.46;76.90
17764;BME280;22245;52.832;13.816;2023-05-06T06:24:23;101671.16;;;9.45;77.43
17764;BME280;22245;52.832;13.816;2023-05-06T06:27:44;101679.88;;;9.47;77.19
17764;BME280;22245;52.832;13.816;2023-05-06T06:31:07;101675.31;;;9.49;77.65
17764;BME280;22245;52.832;13.816;2023-05-06T06:34:29;101675.31;;;9.49;77.22
17764;BME280;22245;52.832;13.816;2023-05-06T06:37:51;101676.19;;;9.50;77.57
17764;BME280;22245;52.832;13.816;2023-05-06T06:41:12;101677.88;;;9.51;78.04
17764;BME280;22245;52.832;13.816;2023-05-06T06:44:34;101673.31;;;9.53;77.38
17764;BME280;22245;52.832;13.816;2023-05-06T06:47:57;101672.25;;;9.55;77.69
17764;BME280;22245;52.832;13.816;2023-05-06T06:51:18;101680.22;;;9.55;78.44
17764;BME280;22245;52.832;13.816;2023-05-06T06:54:40;101681.09;;;9.56;78.94
17764;BME280;22245;52.832;13.816;2023-05-06T06:58:01;101676.53;;;9.58;78.69
17764;BME280;22245;52.832;13.816;2023-05-06T07:01:23;101674.63;;;9.60;79.46
17764;BME280;22245;52.832;13.816;2023-05-06T07:04:45;101678.09;;;9.61;78.81
17764;BME280;22245;52.832;13.816;2023-05-06T07:08:07;101680.88;;;9.59;79.01
17764;BME280;22245;52.832;13.816;2023-05-06T07:11:28;101682.69;;;9.59;78.82
17764;BME280;22245;52.832;13.816;2023-05-06T07:14:49;101687.25;;;9.56;79.13
17764;BME280;22245;52.832;13.816;2023-05-06T07:18:11;101690.78;;;9.57;79.47
17764;BME280;22245;52.832;13.816;2023-05-06T07:21:34;101690.56;;;9.60;78.49
17764;BME280;22245;52.832;13.816;2023-05-06T07:24:55;101692.28;;;9.61;78.85
17764;BME280;22245;52.832;13.816;2023-05-06T07:28:16;101686.97;;;9.61;78.93
17764;BME280;22245;52.832;13.816;2023-05-06T07:31:38;101689.81;;;9.58;78.49
17764;BME280;22245;52.832;13.816;2023-05-06T07:34:59;101698.00;;;9.55;78.65
17764;BME280;22245;52.832;13.816;2023-05-06T07:38:23;101697.25;;;9.53;78.97
17764;BME280;22245;52.832;13.816;2023-05-06T07:41:44;101699.16;;;9.51;79.22
17764;BME280;22245;52.832;13.816;2023-05-06T07:45:07;101698.41;;;9.49;78.77
17764;BME280;22245;52.832;13.816;2023-05-06T07:48:29;101690.53;;;9.47;79.25
17764;BME280;22245;52.832;13.816;2023-05-06T07:51:51;101690.59;;;9.46;79.59
17764;BME280;22245;52.832;13.816;2023-05-06T07:55:14;101701.25;;;9.46;80.37
17764;BME280;22245;52.832;13.816;2023-05-06T07:58:36;101691.47;;;9.46;80.00
17764;BME280;22245;52.832;13.816;2023-05-06T08:01:58;101701.81;;;9.51;79.91
17764;BME280;22245;52.832;13.816;2023-05-06T08:05:19;101696.31;;;9.54;79.77
17764;BME280;22245;52.832;13.816;2023-05-06T08:08:40;101706.72;;;9.57;80.14
17764;BME280;22245;52.832;13.816;2023-05-06T08:12:03;101705.97;;;9.55;79.65
17764;BME280;22245;52.832;13.816;2023-05-06T08:15:25;101706.28;;;9.50;80.11
17764;BME280;22245;52.832;13.816;2023-05-06T08:18:46;101714.38;;;9.49;80.87
17764;BME280;22245;52.832;13.816;2023-05-06T08:22:08;101715.94;;;9.51;80.95
17764;BME280;22245;52.832;13.816;2023-05-06T08:25:29;101712.53;;;9.49;81.30
17764;BME280;22245;52.832;13.816;2023-05-06T08:28:52;101713.09;;;9.54;80.98
17764;BME280;22245;52.832;13.816;2023-05-06T08:32:15;101725.56;;;9.54;81.20
17764;BME280;22245;52.832;13.816;2023-05-06T08:35:37;101722.97;;;9.52;80.83
17764;BME280;22245;52.832;13.816;2023-05-06T08:38:58;101728.63;;;9.48;80.64
17764;BME280;22245;52.832;13.816;2023-05-06T08:42:20;101735.81;;;9.46;81.51
17764;BME280;22245;52.832;13.816;2023-05-06T08:45:44;101732.19;;;9.47;81.48
17764;BME280;22245;52.832;13.816;2023-05-06T08:49:06;101730.22;;;9.50;81.68
17764;BME280;22245;52.832;13.816;2023-05-06T08:52:27;101720.22;;;9.54;81.63
17764;BME280;22245;52.832;13.816;2023-05-06T08:55:50;101718.31;;;9.56;81.82
17764;BME280;22245;52.832;13.816;2023-05-06T08:59:15;101717.25;;;9.59;81.43
17764;BME280;22245;52.832;13.816;2023-05-06T09:02:38;101719.28;;;9.55;80.93
17764;BME280;22245;52.832;13.816;2023-05-06T09:06:03;101723.72;;;9.54;80.48
17764;BME280;22245;52.832;13.816;2023-05-06T09:09:24;101725.84;;;9.49;80.33
17764;BME280;22245;52.832;13.816;2023-05-06T09:12:46;101730.59;;;9.44;80.63
17764;BME280;22245;52.832;13.816;2023-05-06T09:16:08;101733.16;;;9.46;81.76
17764;BME280;22245;52.832;13.816;2023-05-06T09:19:31;101731.66;;;9.41;81.25
17764;BME280;22245;52.832;13.816;2023-05-06T09:22:52;101738.31;;;9.49;81.16
17764;BME280;22245;52.832;13.816;2023-05-06T09:26:14;101745.00;;;9.54;81.48
17764;BME280;22245;52.832;13.816;2023-05-06T09:29:36;101743.22;;;9.55;80.70
17764;BME280;22245;52.832;13.816;2023-05-06T09:32:58;101749.56;;;9.52;81.30
17764;BME280;22245;52.832;13.816;2023-05-06T09:36:24;101743.00;;;9.58;82.69
17764;BME280;22245;52.832;13.816;2023-05-06T09:39:46;101757.06;;;9.60;81.01
17764;BME280;22245;52.832;13.816;2023-05-06T09:43:07;101746.97;;;9.65;80.64
17764;BME280;22245;52.832;13.816;2023-05-06T09:46:30;101750.38;;;9.67;79.71
17764;BME280;22245;52.832;13.816;2023-05-06T09:49:55;101760.28;;;9.65;79.46
17764;BME280;22245;52.832;13.816;2023-05-06T09:53:20;101763.00;;;9.64;80.52
17764;BME280;22245;52.832;13.816;2023-05-06T09:56:43;101771.19;;;9.61;79.79
17764;BME280;22245;52.832;13.816;2023-05-06T10:00:07;101777.38;;;9.61;79.41
17764;BME280;22245;52.832;13.816;2023-05-06T10:03:33;101775.75;;;9.59;79.21
17764;BME280;22245;52.832;13.816;2023-05-06T10:06:56;101776.84;;;9.56;79.11
17764;BME280;22245;52.832;13.816;2023-05-06T10:10:21;101777.66;;;9.56;79.13
17764;BME280;22245;52.832;13.816;2023-05-06T10:13:45;101774.81;;;9.60;79.98
17764;BME280;22245;52.832;13.816;2023-05-06T10:17:08;101774.72;;;9.61;80.62
17764;BME280;22245;52.832;13.816;2023-05-06T10:20:30;101771.88;;;9.64;80.13
17764;BME280;22245;52.832;13.816;2023-05-06T10:23:57;101774.72;;;9.61;78.64
17764;BME280;22245;52.832;13.816;2023-05-06T10:27:22;101771.31;;;9.59;78.46
17764;BME280;22245;52.832;13.816;2023-05-06T10:30:47;101785.75;;;9.55;78.91
17764;BME280;22245;52.832;13.816;2023-05-06T10:34:09;101787.34;;;9.58;79.12
17764;BME280;22245;52.832;13.816;2023-05-06T10:37:33;101789.81;;;9.61;79.05
17764;BME280;22245;52.832;13.816;2023-05-06T10:40:56;101782.69;;;9.61;79.22
17764;BME280;22245;52.832;13.816;2023-05-06T10:45:00;101789.94;;;9.59;78.89
17764;BME280;22245;52.832;13.816;2023-05-06T10:48:25;101792.38;;;9.62;78.96
17764;BME280;22245;52.832;13.816;2023-05-06T10:51:47;101788.09;;;9.60;78.50
17764;BME280;22245;52.832;13.816;2023-05-06T10:55:24;101798.66;;;9.61;78.23
17764;BME280;22245;52.832;13.816;2023-05-06T10:58:46;101794.28;;;9.60;77.86
17764;BME280;22245;52.832;13.816;2023-05-06T11:02:09;101802.34;;;9.59;78.69
17764;BME280;22245;52.832;13.816;2023-05-06T11:05:32;101809.59;;;9.56;78.82
17764;BME280;22245;52.832;13.816;2023-05-06T11:08:56;101820.34;;;9.55;77.89
17764;BME280;22245;52.832;13.816;2023-05-06T11:12:20;101828.13;;;9.58;78.81
17764;BME280;22245;52.832;13.816;2023-05-06T11:15:41;101820.34;;;9.55;77.66
17764;BME280;22245;52.832;13.816;2023-05-06T11:19:06;101824.69;;;9.56;77.73
17764;BME280;22245;52.832;13.816;2023-05-06T11:22:37;101822.03;;;9.56;77.64
17764;BME280;22245;52.832;13.816;2023-05-06T11:26:00;101831.63;;;9.59;77.50
17764;BME280;22245;52.832;13.816;2023-05-06T11:29:22;101823.63;;;9.59;77.56
17764;BME280;22245;52.832;13.816;2023-05-06T11:32:45;101830.84;;;9.56;78.43
17764;BME280;22245;52.832;13.816;2023-05-06T11:36:13;101827.44;;;9.54;78.32
17764;BME280;22245;52.832;13.816;2023-05-06T11:39:35;101830.22;;;9.53;78.12
17764;BME280;22245;52.832;13.816;2023-05-06T11:43:10;101821.28;;;9.54;77.64
17764;BME280;22245;52.832;13.816;2023-05-06T11:46:32;101833.63;;;9.55;78.26
17764;BME280;22245;52.832;13.816;2023-05-06T11:49:54;101833.44;;;9.58;79.01
17764;BME280;22245;52.832;13.816;2023-05-06T11:53:20;101831.41;;;9.62;78.92
17764;BME280;22245;52.832;13.816;2023-05-06T11:56:44;101829.22;;;9.68;79.03
17764;BME280;22245;52.832;13.816;2023-05-06T12:00:08;101842.44;;;9.70;78.31
17764;BME280;22245;52.832;13.816;2023-05-06T12:03:31;101836.94;;;9.73;78.34
17764;BME280;22245;52.832;13.816;2023-05-06T12:06:54;101844.72;;;9.76;78.03
17764;BME280;22245;52.832;13.816;2023-05-06T12:10:17;101842.03;;;9.76;77.56
17764;BME280;22245;52.832;13.816;2023-05-06T12:13:41;101855.22;;;9.78;77.06
17764;BME280;22245;52.832;13.816;2023-05-06T12:17:03;101847.38;;;9.76;76.67
17764;BME280;22245;52.832;13.816;2023-05-06T12:20:25;101857.50;;;9.84;78.01
17764;BME280;22245;52.832;13.816;2023-05-06T12:23:50;101859.13;;;9.87;77.94
17764;BME280;22245;52.832;13.816;2023-05-06T12:27:27;101854.06;;;9.96;77.64
17764;BME280;22245;52.832;13.816;2023-05-06T12:30:49;101856.53;;;9.99;77.17
17764;BME280;22245;52.832;13.816;2023-05-06T12:34:11;101861.34;;;10.07;77.48
17764;BME280;22245;52.832;13.816;2023-05-06T12:37:32;101867.09;;;10.14;77.07
17764;BME280;22245;52.832;13.816;2023-05-06T12:40:54;101875.09;;;10.14;76.01
17764;BME280;22245;52.832;13.816;2023-05-06T12:44:34;101882.88;;;10.17;76.13
17764;BME280;22245;52.832;13.816;2023-05-06T12:47:57;101880.34;;;10.16;75.30
17764;BME280;22245;52.832;13.816;2023-05-06T12:51:19;101878.84;;;10.11;75.20
17764;BME280;22245;52.832;13.816;2023-05-06T12:54:41;101882.25;;;10.13;75.62
17764;BME280;22245;52.832;13.816;2023-05-06T12:58:02;101877.97;;;10.11;75.10
17764;BME280;22245;52.832;13.816;2023-05-06T13:01:26;101877.41;;;10.06;76.06
17764;BME280;22245;52.832;13.816;2023-05-06T13:04:48;101882.44;;;10.10;77.01
17764;BME280;22245;52.832;13.816;2023-05-06T13:08:10;101885.19;;;10.09;76.49
17764;BME280;22245;52.832;13.816;2023-05-06T13:11:32;101885.94;;;10.11;76.99
17764;BME280;22245;52.832;13.816;2023-05-06T13:14:53;101888.59;;;10.11;76.96
17764;BME280;22245;52.832;13.816;2023-05-06T13:18:16;101894.69;;;10.13;76.81
17764;BME280;22245;52.832;13.816;2023-05-06T13:21:39;101895.44;;;10.15;75.92
17764;BME280;22245;52.832;13.816;2023-05-06T13:25:01;101903.34;;;10.17;76.05
17764;BME280;22245;52.832;13.816;2023-05-06T13:28:23;101907.59;;;10.19;76.05
17764;BME280;22245;52.832;13.816;2023-05-06T13:31:45;101911.00;;;10.21;75.44
17764;BME280;22245;52.832;13.816;2023-05-06T13:35:08;101911.78;;;10.23;75.54
17764;BME280;22245;52.832;13.816;2023-05-06T13:38:30;101910.16;;;10.21;76.51
17764;BME280;22245;52.832;13.816;2023-05-06T13:41:51;101911.00;;;10.21;76.69
17764;BME280;22245;52.832;13.816;2023-05-06T13:45:13;101907.59;;;10.19;76.44
17764;BME280;22245;52.832;13.816;2023-05-06T13:48:34;101907.59;;;10.19;77.31
17764;BME280;22245;52.832;13.816;2023-05-06T13:51:57;101903.13;;;10.20;77.29
17764;BME280;22245;52.832;13.816;2023-05-06T13:55:19;101915.22;;;10.25;76.33
17764;BME280;22245;52.832;13.816;2023-05-06T13:58:41;101912.44;;;10.27;75.97
17764;BME280;22245;52.832;13.816;2023-05-06T14:02:02;101912.22;;;10.30;76.06
17764;BME280;22245;52.832;13.816;2023-05-06T14:05:28;101913.38;;;10.26;75.95
17764;BME280;22245;52.832;13.816;2023-05-06T14:08:50;101918.72;;;10.26;76.08
17764;BME280;22245;52.832;13.816;2023-05-06T14:12:12;101913.28;;;10.27;76.27
17764;BME280;22245;52.832;13.816;2023-05-06T14:15:34;101912.13;;;10.32;76.47
17764;BME280;22245;52.832;13.816;2023-05-06T14:18:56;101921.84;;;10.33;76.54
17764;BME280;22245;52.832;13.816;2023-05-06T14:22:19;101905.94;;;10.31;76.41
17764;BME280;22245;52.832;13.816;2023-05-06T14:25:41;101904.91;;;10.34;76.43
17764;BME280;22245;52.832;13.816;2023-05-06T14:29:03;101907.56;;;10.34;76.69
17764;BME280;22245;52.832;13.816;2023-05-06T14:32:24;101906.59;;;10.35;77.81
17764;BME280;22245;52.832;13.816;2023-05-06T14:35:45;101911.94;;;10.35;77.74
17764;BME280;22245;52.832;13.816;2023-05-06T14:39:09;101914.47;;;10.36;77.98
17764;BME280;22245;52.832;13.816;2023-05-06T14:42:32;101918.97;;;10.36;78.69
17764;BME280;22245;52.832;13.816;2023-05-06T14:45:54;101920.66;;;10.37;79.41
17764;BME280;22245;52.832;13.816;2023-05-06T14:49:16;101923.41;;;10.35;80.11
17764;BME280;22245;52.832;13.816;2023-05-06T14:52:38;101924.50;;;10.33;79.56
17764;BME280;22245;52.832;13.816;2023-05-06T14:56:00;101924.50;;;10.33;79.61
17764;BME280;22245;52.832;13.816;2023-05-06T14:59:23;101928.41;;;10.27;79.53
17764;BME280;22245;52.832;13.816;2023-05-06T15:02:45;101925.94;;;10.24;79.80
17764;BME280;22245;52.832;13.816;2023-05-06T15:06:06;101922.44;;;10.23;79.64
17764;BME280;22245;52.832;13.816;2023-05-06T15:09:28;101922.44;;;10.23;79.65
17764;BME280;22245;52.832;13.816;2023-05-06T15:12:50;101922.44;;;10.23;79.22
17764;BME280;22245;52.832;13.816;2023-05-06T15:16:13;101925.09;;;10.23;79.70
17764;BME280;22245;52.832;13.816;2023-05-06T15:19:34;101931.19;;;10.25;79.52
17764;BME280;22245;52.832;13.816;2023-05-06T15:22:57;101928.69;;;10.22;79.96
17764;BME280;22245;52.832;13.816;2023-05-06T15:26:19;101934.78;;;10.24;80.02
17764;BME280;22245;52.832;13.816;2023-05-06T15:29:40;101939.34;;;10.22;80.21
17764;BME280;22245;52.832;13.816;2023-05-06T15:33:04;101937.75;;;10.20;80.51
17764;BME280;22245;52.832;13.816;2023-05-06T15:36:26;101941.25;;;10.20;80.70
17764;BME280;22245;52.832;13.816;2023-05-06T15:39:48;101942.13;;;10.21;79.93
17764;BME280;22245;52.832;13.816;2023-05-06T15:43:09;101943.91;;;10.20;81.14
17764;BME280;22245;52.832;13.816;2023-05-06T15:46:39;101951.91;;;10.20;80.60
17764;BME280;22245;52.832;13.816;2023-05-06T15:50:03;101944.78;;;10.21;81.25
17764;BME280;22245;52.832;13.816;2023-05-06T15:53:41;101949.22;;;10.20;80.79
17764;BME280;22245;52.832;13.816;2023-05-06T15:57:03;101942.94;;;10.21;81.62
17764;BME280;22245;52.832;13.816;2023-05-06T16:00:26;101940.22;;;10.23;81.85
17764;BME280;22245;52.832;13.816;2023-05-06T16:03:48;101940.97;;;10.25;81.78
17764;BME280;22245;52.832;13.816;2023-05-06T16:07:12;101938.22;;;10.26;80.89
17764;BME280;22245;52.832;13.816;2023-05-06T16:10:34;101947.03;;;10.27;80.68
17764;BME280;22245;52.832;13.816;2023-05-06T16:13:56;101948.88;;;10.26;80.59
17764;BME280;22245;52.832;13.816;2023-05-06T16:17:17;101946.19;;;10.26;81.04
17764;BME280;22245;52.832;13.816;2023-05-06T16:20:39;101949.69;;;10.27;81.00
17764;BME280;22245;52.832;13.816;2023-05-06T16:24:02;101942.78;;;10.24;80.72
17764;BME280;22245;52.832;13.816;2023-05-06T16:27:23;101949.97;;;10.22;80.88
17764;BME280;22245;52.832;13.816;2023-05-06T16:30:46;101951.72;;;10.23;80.12
17764;BME280;22245;52.832;13.816;2023-05-06T16:34:08;101954.28;;;10.25;79.90
17764;BME280;22245;52.832;13.816;2023-05-06T16:37:29;101950.84;;;10.23;80.18
17764;BME280;22245;52.832;13.816;2023-05-06T16:40:52;101949.81;;;10.25;80.53
17764;BME280;22245;52.832;13.816;2023-05-06T16:44:13;101946.28;;;10.25;80.24
17764;BME280;22245;52.832;13.816;2023-05-06T16:47:35;101940.88;;;10.26;80.23
17764;BME280;22245;52.832;13.816;2023-05-06T16:50:57;101952.38;;;10.27;80.14
17764;BME280;22245;52.832;13.816;2023-05-06T16:54:19;101954.19;;;10.26;80.13
17764;BME280;22245;52.832;13.816;2023-05-06T16:57:42;101959.41;;;10.28;79.97
17764;BME280;22245;52.832;13.816;2023-05-06T17:01:05;101956.84;;;10.26;80.14
17764;BME280;22245;52.832;13.816;2023-05-06T17:04:27;101963.88;;;10.27;80.85
17764;BME280;22245;52.832;13.816;2023-05-06T17:07:48;101970.25;;;10.25;80.50
17764;BME280;22245;52.832;13.816;2023-05-06T17:11:10;101962.25;;;10.25;80.49
17764;BME280;22245;52.832;13.816;2023-05-06T17:14:33;101970.38;;;10.23;81.05
17764;BME280;22245;52.832;13.816;2023-05-06T17:17:55;101971.13;;;10.25;81.07
17764;BME280;22245;52.832;13.816;2023-05-06T17:21:17;101973.03;;;10.23;81.09
17764;BME280;22245;52.832;13.816;2023-05-06T17:24:40;101977.56;;;10.21;81.76
17764;BME280;22245;52.832;13.816;2023-05-06T17:28:03;101977.56;;;10.21;81.97
17764;BME280;22245;52.832;13.816;2023-05-06T17:31:26;101982.81;;;10.23;82.11
17764;BME280;22245;52.832;13.816;2023-05-06T17:34:47;101980.34;;;10.20;82.03